METAR Data
IDs: Format: Raw Decoded Include TAF

Data at: 0158 UTC 24 Oct 2019

METAR for:KCIN (Carroll/Neu Arpt, IA, US)
Text:KCIN 240155Z AUTO 33006KT 10SM FEW009 FEW012 OVC041 04/03 A3013 RMK AO2
Temperature: 4.0°C ( 39°F)
Dewpoint: 3.0°C ( 37°F) [RH = 93%]
Pressure (altimeter):30.13 inches Hg (1020.4 mb)
Winds:from the NNW (330 degrees) at 7 MPH (6 knots; 3.1 m/s)
Visibility:10 or more sm (16+ km)
Ceiling:4100 feet AGL
Clouds: few clouds at 900 feet AGL, few clouds at 1200 feet AGL, overcast cloud deck at 4100 feet AGL
QC Flag:automated observation with no human augmentation